createdAt,value
2019-06-20T00:02:06.015Z,99794.72
2019-06-20T00:04:37.538Z,99780.82
2019-06-20T00:07:09.073Z,99752.77
2019-06-20T00:09:40.562Z,99764.58
2019-06-20T00:12:14.476Z,99756.27
2019-06-20T00:14:46.229Z,99753.18
2019-06-20T00:17:17.739Z,99743.56
2019-06-20T00:19:49.115Z,99735.00
2019-06-20T00:22:20.823Z,99726.70
2019-06-20T00:24:52.813Z,99731.65
2019-06-20T00:27:27.560Z,99727.10
2019-06-20T00:29:59.197Z,99762.22
2019-06-20T00:32:30.829Z,99750.96
2019-06-20T00:35:02.432Z,99744.95
2019-06-20T00:37:33.988Z,99736.40
2019-06-20T00:40:06.419Z,99735.00
2019-06-20T00:42:38.146Z,99725.08
2019-06-20T00:45:12.515Z,99733.55
2019-06-20T00:47:43.941Z,99717.97
2019-06-20T00:50:16.138Z,99732.36
2019-06-20T00:52:47.651Z,99718.10
2019-06-20T00:55:19.222Z,99731.37
2019-06-20T00:57:50.709Z,99733.48
2019-06-20T01:00:25.804Z,99731.12
2019-06-20T01:02:57.283Z,99738.33
2019-06-20T01:05:31.187Z,99746.38
2019-06-20T01:08:02.739Z,99754.61
2019-06-20T01:10:34.300Z,99748.54
2019-06-20T01:13:05.959Z,99750.60
2019-06-20T01:15:37.501Z,99752.09
2019-06-20T01:18:09.366Z,99758.66
2019-06-20T01:20:40.989Z,99771.38
2019-06-20T01:23:12.567Z,99768.77
2019-06-20T01:25:45.454Z,99780.43
2019-06-20T01:28:17.273Z,99783.35
2019-06-20T01:30:48.965Z,99794.17
2019-06-20T01:33:20.431Z,99804.27
2019-06-20T01:35:51.988Z,99798.67
2019-06-20T01:38:23.851Z,99797.10
2019-06-20T01:40:58.263Z,99797.89
2019-06-20T01:43:30.091Z,99790.67
2019-06-20T01:46:01.661Z,99800.03
2019-06-20T01:48:33.161Z,99805.34
2019-06-20T01:51:06.343Z,99809.27
2019-06-20T01:53:37.853Z,99815.73
2019-06-20T01:56:09.511Z,99841.08
2019-06-20T01:58:41.007Z,99848.37
2019-06-20T02:01:12.457Z,99849.86
2019-06-20T02:03:44.522Z,99853.95
2019-06-20T02:06:16.422Z,99862.09
2019-06-20T02:08:47.907Z,99893.80
2019-06-20T02:11:22.051Z,99916.98
2019-06-20T02:14:06.368Z,99935.67
2019-06-20T02:16:26.806Z,99941.94
2019-06-20T02:18:58.437Z,99943.42
2019-06-20T02:21:30.179Z,99944.72
2019-06-20T02:24:01.833Z,99981.69
2019-06-20T02:26:33.886Z,100010.80
2019-06-20T02:29:05.471Z,100021.43
2019-06-20T02:31:37.012Z,100047.09
2019-06-20T02:34:08.686Z,100076.62
2019-06-20T02:36:40.343Z,100093.58
2019-06-20T02:39:11.863Z,100114.43
2019-06-20T02:41:43.523Z,100142.75
2019-06-20T02:44:29.401Z,100151.30
2019-06-20T02:46:48.496Z,100153.97
2019-06-20T02:49:23.119Z,100201.22
2019-06-20T02:51:55.498Z,100222.36
2019-06-20T02:54:27.014Z,100275.08
2019-06-20T02:56:59.306Z,100322.67
2019-06-20T02:59:30.900Z,100354.55
2019-06-20T03:02:02.629Z,100291.59
2019-06-20T03:04:34.239Z,100308.76
2019-06-20T03:07:05.809Z,100335.97
2019-06-20T03:09:38.505Z,100358.16
2019-06-20T03:12:10.379Z,100374.55
2019-06-20T03:14:45.728Z,100437.47
2019-06-20T03:17:15.640Z,100455.09
2019-06-20T03:19:47.742Z,100488.22
2019-06-20T03:22:19.686Z,100530.22
2019-06-20T03:24:51.165Z,100582.92
2019-06-20T03:27:25.191Z,100600.66
2019-06-20T03:29:59.757Z,100629.20
2019-06-20T03:32:32.733Z,100651.05
2019-06-20T03:35:04.504Z,100675.59
2019-06-20T03:37:36.225Z,100691.95
2019-06-20T03:40:08.063Z,100739.52
2019-06-20T03:42:39.617Z,100749.69
2019-06-20T03:45:11.751Z,100760.56
2019-06-20T03:47:43.300Z,100758.81
2019-06-20T03:50:15.277Z,100770.81
2019-06-20T03:52:48.885Z,100774.00
2019-06-20T03:55:23.305Z,100789.27
2019-06-20T03:57:55.110Z,100784.98
2019-06-20T04:00:26.947Z,100795.06
2019-06-20T04:02:58.766Z,100800.69
2019-06-20T04:05:30.424Z,100808.92
2019-06-20T04:08:02.253Z,100812.08
2019-06-20T04:10:37.001Z,100827.75
2019-06-20T04:13:08.525Z,100828.44
2019-06-20T04:15:40.396Z,100834.50
2019-06-20T04:18:12.140Z,100830.39
2019-06-20T04:20:43.646Z,100834.86
2019-06-20T04:23:15.246Z,100833.56
2019-06-20T04:25:47.065Z,100848.67
2019-06-20T04:28:18.741Z,100845.67
2019-06-20T04:30:50.523Z,100842.13
2019-06-20T04:33:22.235Z,100838.06
2019-06-20T04:35:53.966Z,100834.53
2019-06-20T04:38:25.518Z,100838.09
2019-06-20T04:40:57.149Z,100845.23
2019-06-20T04:43:28.728Z,100861.08
2019-06-20T04:46:25.721Z,100858.66
2019-06-20T04:48:57.255Z,100871.13
2019-06-20T04:51:28.844Z,100875.22
2019-06-20T04:54:00.518Z,100870.97
2019-06-20T04:59:16.317Z,100877.89
2019-06-20T05:01:47.920Z,100875.23
2019-06-20T05:04:19.710Z,100879.91
2019-06-20T05:06:55.295Z,100883.97
2019-06-20T05:09:27.926Z,100887.03
2019-06-20T05:11:59.559Z,100894.31
2019-06-20T05:14:32.768Z,100890.53
2019-06-20T05:17:07.139Z,100893.63
2019-06-20T05:19:37.749Z,100904.20
2019-06-20T05:22:12.652Z,100908.18
2019-06-20T05:24:44.619Z,100895.95
2019-06-20T05:27:17.877Z,100888.52
2019-06-20T05:29:53.168Z,100876.88
2019-06-20T05:32:27.539Z,100864.80
2019-06-20T05:35:02.830Z,100861.27
2019-06-20T05:39:06.217Z,100834.28
2019-06-20T05:41:42.473Z,100845.52
2019-06-20T05:44:15.855Z,100826.87
2019-06-20T05:46:48.654Z,100834.00
2019-06-20T05:49:20.298Z,100819.95
2019-06-20T05:51:52.952Z,100783.94
2019-06-20T05:54:24.491Z,100770.64
2019-06-20T05:56:56.172Z,100724.21
2019-06-20T05:59:28.961Z,100666.52
2019-06-20T06:02:00.648Z,100624.69
2019-06-20T06:04:33.694Z,100544.81
2019-06-20T06:07:05.247Z,100469.10
2019-06-20T06:09:37.523Z,100428.23
2019-06-20T06:12:09.794Z,100411.41
2019-06-20T06:14:43.836Z,100408.84
2019-06-20T06:17:19.805Z,100391.37
2019-06-20T06:19:52.689Z,100385.64
2019-06-20T06:22:26.418Z,100339.08
2019-06-20T06:25:06.543Z,100332.64
2019-06-20T06:27:38.503Z,100322.59
2019-06-20T06:30:12.163Z,100310.77
2019-06-20T06:32:44.084Z,100312.84
2019-06-20T06:35:16.208Z,100292.84
2019-06-20T06:37:48.098Z,100291.55
2019-06-20T06:40:21.955Z,100287.13
2019-06-20T06:42:53.619Z,100289.59
2019-06-20T06:45:30.356Z,100273.23
2019-06-20T06:48:02.158Z,100282.41
2019-06-20T06:50:35.088Z,100277.86
2019-06-20T06:53:07.027Z,100270.55
2019-06-20T06:55:38.693Z,100276.21
2019-06-20T06:58:10.295Z,100266.33
2019-06-20T07:00:41.857Z,100260.52
2019-06-20T07:03:13.836Z,100254.26
2019-06-20T07:05:46.272Z,100225.12
2019-06-20T07:08:17.889Z,100211.34
2019-06-20T07:10:49.773Z,100205.66
2019-06-20T07:13:22.046Z,100207.97
2019-06-20T07:16:00.917Z,100203.13
2019-06-20T07:18:32.598Z,100195.52
2019-06-20T07:21:07.195Z,100194.02
2019-06-20T07:23:39.926Z,100207.05
2019-06-20T07:26:12.643Z,100212.15
2019-06-20T07:28:44.337Z,100222.90
2019-06-20T07:31:15.833Z,100229.19
2019-06-20T07:33:47.700Z,100229.19
2019-06-20T07:36:19.397Z,100222.52
2019-06-20T07:38:54.257Z,100225.02
2019-06-20T07:41:26.487Z,100222.08
2019-06-20T07:43:58.158Z,100227.29
2019-06-20T07:46:29.942Z,100167.56
2019-06-20T07:49:01.542Z,100157.48
2019-06-20T07:51:33.436Z,100160.71
2019-06-20T07:54:05.274Z,100249.59
2019-06-20T07:57:43.399Z,100279.45
2019-06-20T08:00:17.352Z,100263.02
2019-06-20T08:02:48.962Z,100263.58
2019-06-20T08:05:21.025Z,100291.89
2019-06-20T08:07:54.581Z,100300.66
2019-06-20T08:10:28.480Z,100307.94
2019-06-20T08:12:59.985Z,100318.39
2019-06-20T08:15:33.664Z,100329.27
2019-06-20T08:18:05.681Z,100342.61
2019-06-20T08:20:37.403Z,100364.67
2019-06-20T08:23:09.097Z,100379.06
2019-06-20T08:25:40.633Z,100386.83
2019-06-20T08:28:12.317Z,100406.58
2019-06-20T08:30:45.738Z,100406.63
2019-06-20T08:33:17.388Z,100415.48
2019-06-20T08:35:48.968Z,100397.03
2019-06-20T08:38:20.692Z,100396.13
2019-06-20T08:40:52.611Z,100392.20
2019-06-20T08:43:24.276Z,100387.66
2019-06-20T08:47:02.339Z,100405.73
2019-06-20T08:49:34.017Z,100391.73
2019-06-20T08:52:05.786Z,100393.66
2019-06-20T08:54:37.394Z,100395.36
2019-06-20T08:57:08.938Z,100405.22
2019-06-20T08:59:42.940Z,100407.23
2019-06-20T09:02:16.153Z,100407.84
2019-06-20T09:04:49.777Z,100414.26
2019-06-20T09:07:22.066Z,100421.97
2019-06-20T09:09:54.211Z,100419.17
2019-06-20T09:12:26.401Z,100408.67
2019-06-20T09:14:59.204Z,100400.34
2019-06-20T09:17:31.419Z,100361.61
2019-06-20T09:20:03.811Z,100325.80
2019-06-20T09:23:38.631Z,100338.05
2019-06-20T09:26:10.513Z,100308.38
2019-06-20T09:28:42.457Z,100310.52
2019-06-20T09:31:14.308Z,100300.00
2019-06-20T09:33:46.247Z,100298.84
2019-06-20T09:36:19.336Z,100290.98
2019-06-20T09:38:52.464Z,100302.91
2019-06-20T09:41:24.744Z,100339.63
2019-06-20T09:43:56.487Z,100363.42
2019-06-20T09:46:28.441Z,100420.48
2019-06-20T09:49:00.204Z,100478.24
2019-06-20T09:51:32.134Z,100510.13
2019-06-20T09:54:03.935Z,100528.21
2019-06-20T09:56:35.825Z,100563.13
2019-06-20T09:59:07.728Z,100595.02
2019-06-20T10:01:39.494Z,100602.78
2019-06-20T10:04:12.278Z,100621.52
2019-06-20T10:06:44.341Z,100622.49
2019-06-20T10:09:16.642Z,100632.00
2019-06-20T10:14:12.725Z,100621.43
2019-06-20T10:16:50.320Z,100595.90
2019-06-20T10:19:18.953Z,100580.50
2019-06-20T10:21:51.954Z,100587.50
2019-06-20T10:24:24.039Z,100593.48
2019-06-20T10:26:58.025Z,100601.34
2019-06-20T10:29:29.990Z,100621.88
2019-06-20T10:32:01.624Z,100629.59
2019-06-20T10:34:33.365Z,100636.03
2019-06-20T10:37:05.279Z,100642.48
2019-06-20T10:39:36.806Z,100643.14
2019-06-20T10:42:08.244Z,100654.14
2019-06-20T10:44:39.865Z,100658.06
2019-06-20T10:47:11.348Z,100664.13
2019-06-20T10:49:44.639Z,100667.27
2019-06-20T10:52:17.619Z,100667.36
2019-06-20T10:54:49.338Z,100668.76
2019-06-20T10:57:20.921Z,100651.12
2019-06-20T10:59:52.470Z,100652.45
2019-06-20T11:02:24.108Z,100648.17
2019-06-20T11:04:55.667Z,100650.78
2019-06-20T11:07:31.695Z,100647.22
2019-06-20T11:10:03.837Z,100649.05
2019-06-20T11:12:45.809Z,100656.94
2019-06-20T11:15:21.166Z,100679.63
2019-06-20T11:17:56.121Z,100665.62
2019-06-20T11:20:27.095Z,100678.72
2019-06-20T11:22:58.750Z,100682.66
2019-06-20T11:25:31.844Z,100682.53
2019-06-20T11:28:03.447Z,100690.45
2019-06-20T11:30:48.274Z,100684.72
2019-06-20T11:33:09.064Z,100689.25
2019-06-20T11:37:56.314Z,100721.37
2019-06-20T11:40:29.007Z,100728.62
2019-06-20T11:43:00.701Z,100736.29
2019-06-20T11:45:35.418Z,100755.25
2019-06-20T11:48:06.116Z,100754.59
2019-06-20T11:50:37.902Z,100772.90
2019-06-20T11:53:12.201Z,100785.17
2019-06-20T11:55:44.095Z,100787.52
2019-06-20T11:58:15.779Z,100778.70
2019-06-20T12:01:02.695Z,100767.45
2019-06-20T12:03:20.827Z,100768.47
2019-06-20T12:05:52.809Z,100776.83
2019-06-20T12:08:24.899Z,100782.92
2019-06-20T12:10:56.846Z,100782.36
2019-06-20T12:13:28.462Z,100798.42
2019-06-20T12:16:00.106Z,100799.84
2019-06-20T12:18:31.743Z,100798.80
2019-06-20T12:21:03.291Z,100811.62
2019-06-20T12:23:34.891Z,100780.20
2019-06-20T12:26:06.588Z,100771.10
2019-06-20T12:28:39.627Z,100764.43
2019-06-20T12:31:19.516Z,100767.25
2019-06-20T12:33:47.156Z,100763.35
2019-06-20T12:36:19.439Z,100775.92
2019-06-20T12:38:51.673Z,100774.14
2019-06-20T12:41:24.190Z,100776.69
2019-06-20T12:46:10.793Z,100743.62
2019-06-20T12:48:42.815Z,100734.00
2019-06-20T12:51:16.179Z,100723.56
2019-06-20T12:53:48.399Z,100716.73
2019-06-20T12:56:20.505Z,100727.67
2019-06-20T12:58:52.040Z,100725.63
2019-06-20T13:01:35.027Z,100732.86
2019-06-20T13:03:57.677Z,100726.73
2019-06-20T13:06:29.668Z,100731.80
2019-06-20T13:09:01.244Z,100735.45
2019-06-20T13:11:34.330Z,100739.68
2019-06-20T13:14:06.142Z,100738.52
2019-06-20T13:16:38.998Z,100750.00
2019-06-20T13:19:11.318Z,100744.00
2019-06-20T13:23:45.542Z,100748.99
2019-06-20T13:26:18.841Z,100748.95
2019-06-20T13:29:03.341Z,100751.87
2019-06-20T13:31:25.052Z,100742.83
2019-06-20T13:33:56.990Z,100754.01
2019-06-20T13:36:42.836Z,100743.73
2019-06-20T13:39:15.073Z,100750.89
2019-06-20T13:41:47.830Z,100746.49
2019-06-20T13:44:21.897Z,100754.70
2019-06-20T13:46:53.909Z,100754.61
2019-06-20T13:49:25.672Z,100764.75
2019-06-20T13:51:57.150Z,100769.94
2019-06-20T13:54:30.471Z,100767.98
2019-06-20T13:57:02.106Z,100776.16
2019-06-20T13:59:37.165Z,100771.27
2019-06-20T14:02:11.788Z,100769.70
2019-06-20T14:04:44.496Z,100772.83
2019-06-20T14:07:17.150Z,100773.98
2019-06-20T14:09:49.187Z,100761.92
2019-06-20T14:12:20.806Z,100771.56
2019-06-20T14:14:55.263Z,100759.97
2019-06-20T14:17:26.954Z,100769.27
2019-06-20T14:19:58.514Z,100777.02
2019-06-20T14:22:30.508Z,100779.09
2019-06-20T14:25:02.107Z,100770.36
2019-06-20T14:27:35.108Z,100766.49
2019-06-20T14:30:07.932Z,100767.53
2019-06-20T14:32:41.493Z,100764.47
2019-06-20T14:35:14.869Z,100768.34
2019-06-20T14:37:49.542Z,100765.32
2019-06-20T14:40:22.400Z,100766.16
2019-06-20T14:42:54.775Z,100767.83
2019-06-20T14:45:26.923Z,100783.46
2019-06-20T14:47:58.430Z,100784.83
2019-06-20T14:50:30.334Z,100785.78
2019-06-20T14:53:01.914Z,100789.66
2019-06-20T14:55:34.504Z,100796.03
2019-06-20T14:58:06.792Z,100796.49
2019-06-20T15:00:38.619Z,100789.50
2019-06-20T15:03:10.254Z,100788.02
2019-06-20T15:05:48.251Z,100790.53
2019-06-20T15:08:28.244Z,100793.69
2019-06-20T15:11:04.042Z,100799.13
2019-06-20T15:13:35.618Z,100796.03
2019-06-20T15:16:08.309Z,100789.34
2019-06-20T15:18:40.357Z,100797.61
2019-06-20T15:21:12.317Z,100790.80
2019-06-20T15:23:47.217Z,100803.84
2019-06-20T15:26:18.287Z,100795.50
2019-06-20T15:28:52.977Z,100788.12
2019-06-20T15:31:24.443Z,100784.56
2019-06-20T15:33:57.204Z,100789.97
2019-06-20T15:36:30.242Z,100783.66
2019-06-20T15:39:05.988Z,100787.69
2019-06-20T15:41:37.919Z,100783.20
2019-06-20T15:44:10.740Z,100778.76
2019-06-20T15:46:42.428Z,100796.87
2019-06-20T15:49:16.330Z,100800.27
2019-06-20T15:51:47.479Z,100829.20
2019-06-20T15:54:24.426Z,100825.20
2019-06-20T15:56:55.173Z,100823.97
2019-06-20T15:59:26.943Z,100812.84
2019-06-20T16:02:07.389Z,100811.00
2019-06-20T16:04:40.452Z,100819.37
2019-06-20T16:07:13.380Z,100808.44
2019-06-20T16:10:00.378Z,100810.71
2019-06-20T16:12:32.050Z,100803.41
2019-06-20T16:15:04.706Z,100810.29
2019-06-20T16:17:38.487Z,100806.59
2019-06-20T16:20:12.779Z,100813.13
2019-06-20T16:22:45.242Z,100807.73
2019-06-20T16:25:22.736Z,100817.02
2019-06-20T16:27:56.441Z,100832.28
2019-06-20T16:30:33.525Z,100835.21
2019-06-20T16:33:04.639Z,100830.00
2019-06-20T16:35:36.438Z,100834.27
2019-06-20T16:38:08.456Z,100838.45
2019-06-20T16:40:48.607Z,100832.03
2019-06-20T16:43:21.020Z,100830.11
2019-06-20T16:45:52.737Z,100833.23
2019-06-20T16:48:24.706Z,100834.28
2019-06-20T16:50:58.564Z,100828.57
2019-06-20T16:53:30.659Z,100816.11
2019-06-20T16:56:04.766Z,100813.30
2019-06-20T16:58:36.523Z,100815.73
2019-06-20T17:01:08.209Z,100813.53
2019-06-20T17:03:42.147Z,100816.34
2019-06-20T17:06:14.087Z,100813.88
2019-06-20T17:08:48.471Z,100817.89
2019-06-20T17:11:20.247Z,100819.39
2019-06-20T17:13:51.842Z,100827.77
2019-06-20T17:16:23.774Z,100818.98
2019-06-20T17:18:55.518Z,100831.91
2019-06-20T17:21:33.138Z,100829.73
2019-06-20T17:24:06.294Z,100831.47
2019-06-20T17:26:37.958Z,100837.36
2019-06-20T17:29:09.901Z,100837.36
2019-06-20T17:31:41.572Z,100836.45
2019-06-20T17:34:13.945Z,100841.58
2019-06-20T17:36:45.974Z,100840.45
2019-06-20T17:39:19.942Z,100847.83
2019-06-20T17:41:55.408Z,100840.72
2019-06-20T17:44:28.830Z,100848.31
2019-06-20T17:47:01.503Z,100850.92
2019-06-20T17:49:33.513Z,100849.80
2019-06-20T17:52:05.623Z,100856.22
2019-06-20T17:54:46.346Z,100848.43
2019-06-20T17:57:23.438Z,100860.92
2019-06-20T17:59:55.558Z,100860.48
2019-06-20T18:02:29.170Z,100845.58
2019-06-20T18:05:04.031Z,100847.59
2019-06-20T18:07:39.084Z,100854.36
2019-06-20T18:10:11.361Z,100847.52
2019-06-20T18:12:43.116Z,100845.62
2019-06-20T18:15:19.267Z,100837.55
2019-06-20T18:17:52.973Z,100838.13
2019-06-20T18:20:24.982Z,100840.47
2019-06-20T18:22:56.713Z,100849.25
2019-06-20T18:25:33.318Z,100853.02
2019-06-20T18:28:05.698Z,100850.44
2019-06-20T18:30:43.012Z,100852.55
2019-06-20T18:33:15.299Z,100861.55
2019-06-20T18:35:47.490Z,100865.18
2019-06-20T18:38:19.613Z,100860.00
2019-06-20T18:40:51.236Z,100861.23
2019-06-20T18:43:22.905Z,100857.41
2019-06-20T18:45:58.830Z,100855.29
2019-06-20T18:48:31.359Z,100846.87
2019-06-20T18:51:03.948Z,100849.87
2019-06-20T18:53:37.103Z,100860.64
2019-06-20T18:56:13.392Z,100875.98
2019-06-20T18:58:45.805Z,100887.20
2019-06-20T19:01:17.510Z,100903.52
2019-06-20T19:03:50.933Z,100903.88
2019-06-20T19:06:35.603Z,100905.76
2019-06-20T19:08:58.167Z,100915.11
2019-06-20T19:11:30.403Z,100917.61
2019-06-20T19:14:01.987Z,100914.89
2019-06-20T19:16:34.357Z,100913.53
2019-06-20T19:19:08.770Z,100910.03
2019-06-20T19:21:45.035Z,100901.02
2019-06-20T19:24:17.264Z,100897.80
2019-06-20T19:26:58.795Z,100897.20
2019-06-20T19:29:32.394Z,100903.62
2019-06-20T19:32:04.748Z,100900.90
2019-06-20T19:34:36.227Z,100904.50
2019-06-20T19:37:08.525Z,100900.92
2019-06-20T19:39:44.034Z,100911.42
2019-06-20T19:42:20.488Z,100904.50
2019-06-20T19:45:03.368Z,100902.77
2019-06-20T19:47:35.184Z,100902.00
2019-06-20T19:50:08.037Z,100900.14
2019-06-20T19:52:45.910Z,100901.72
2019-06-20T19:55:21.215Z,100898.69
2019-06-20T19:57:53.135Z,100890.89
2019-06-20T20:00:26.021Z,100886.84
2019-06-20T20:03:00.402Z,100889.48
2019-06-20T20:05:35.240Z,100876.36
2019-06-20T20:08:07.692Z,100875.61
2019-06-20T20:10:50.322Z,100871.71
2019-06-20T20:13:22.691Z,100868.23
2019-06-20T20:15:54.433Z,100851.80
2019-06-20T20:18:26.057Z,100846.46
2019-06-20T20:20:58.765Z,100836.06
2019-06-20T20:23:30.619Z,100815.95
2019-06-20T20:26:08.824Z,100812.61
2019-06-20T20:28:42.620Z,100802.13
2019-06-20T20:31:14.744Z,100802.84
2019-06-20T20:33:47.040Z,100805.81
2019-06-20T20:36:24.748Z,100800.44
2019-06-20T20:38:52.051Z,100818.34
2019-06-20T20:41:30.653Z,100829.41
2019-06-20T20:44:02.553Z,100817.19
2019-06-20T20:46:56.284Z,100822.20
2019-06-20T20:49:30.690Z,100826.72
2019-06-20T20:52:02.334Z,100823.58
2019-06-20T20:54:38.658Z,100828.22
2019-06-20T20:57:12.718Z,100825.89
2019-06-20T20:59:45.315Z,100837.94
2019-06-20T21:02:17.513Z,100839.32
2019-06-20T21:04:49.640Z,100848.83
2019-06-20T21:07:22.034Z,100857.31
2019-06-20T21:09:56.346Z,100859.63
2019-06-20T21:12:31.212Z,100850.98
2019-06-20T21:15:06.934Z,100861.66
2019-06-20T21:17:39.179Z,100855.44
2019-06-20T21:20:11.298Z,100852.90
2019-06-20T21:22:42.896Z,100859.07
2019-06-20T21:25:14.554Z,100860.77
2019-06-20T21:27:48.514Z,100864.89
2019-06-20T21:30:21.913Z,100881.75
2019-06-20T21:32:53.488Z,100883.77
2019-06-20T21:35:25.194Z,100886.61
2019-06-20T21:37:56.856Z,100898.42
2019-06-20T21:40:28.540Z,100882.86
2019-06-20T21:43:00.099Z,100883.88
2019-06-20T21:45:32.679Z,100881.61
2019-06-20T21:48:05.476Z,100869.70
2019-06-20T21:50:38.095Z,100875.81
2019-06-20T21:53:09.750Z,100867.59
2019-06-20T21:55:41.374Z,100860.76
2019-06-20T21:58:12.893Z,100858.55
2019-06-20T22:00:47.553Z,100866.58
2019-06-20T22:03:21.024Z,100865.17
2019-06-20T22:05:52.579Z,100859.26
2019-06-20T22:08:24.787Z,100850.72
2019-06-20T22:10:56.406Z,100843.78
2019-06-20T22:13:27.929Z,100838.86
2019-06-20T22:15:59.501Z,100841.30
2019-06-20T22:18:32.209Z,100841.97
2019-06-20T22:21:03.883Z,100835.86
2019-06-20T22:23:35.676Z,100845.54
2019-06-20T22:26:07.230Z,100847.28
2019-06-20T22:28:38.885Z,100839.79
2019-06-20T22:31:10.504Z,100835.64
2019-06-20T22:33:42.193Z,100833.08
2019-06-20T22:36:13.866Z,100834.50
2019-06-20T22:38:45.424Z,100828.30
2019-06-20T22:41:17.036Z,100828.48
2019-06-20T22:43:49.099Z,100844.04
2019-06-20T22:47:51.509Z,100848.52
2019-06-20T22:50:23.098Z,100815.30
2019-06-20T22:52:55.042Z,100800.14
2019-06-20T22:55:26.576Z,100797.95
2019-06-20T22:57:58.492Z,100795.41
2019-06-20T23:00:30.143Z,100778.16
2019-06-20T23:03:01.760Z,100775.70
2019-06-20T23:05:33.717Z,100768.64
2019-06-20T23:08:05.821Z,100747.62
2019-06-20T23:10:37.386Z,100733.47
2019-06-20T23:13:08.923Z,100728.05
2019-06-20T23:15:40.728Z,100722.43
2019-06-20T23:18:12.241Z,100713.36
2019-06-20T23:21:00.665Z,100703.77
2019-06-20T23:23:17.132Z,100678.44
2019-06-20T23:25:50.899Z,100632.39
2019-06-20T23:28:22.541Z,100628.86
2019-06-20T23:30:54.018Z,100622.09
2019-06-20T23:33:25.548Z,100621.33
2019-06-20T23:36:00.018Z,100632.81
2019-06-20T23:38:33.139Z,100621.52
2019-06-20T23:41:04.682Z,100623.17
2019-06-20T23:43:37.177Z,100607.81
2019-06-20T23:46:08.757Z,100611.98
2019-06-20T23:48:40.876Z,100604.11
2019-06-20T23:51:25.005Z,100594.78
2019-06-20T23:53:45.747Z,100607.92
2019-06-20T23:56:17.372Z,100614.78
2019-06-20T23:58:49.269Z,100605.55
